»·PEaware :: N7087P KBXK-KCHD

N7087P :: KBXK-KCHD

FLIGHT INFORMATION

Flight Status: Arrived
Operator: Privately registered:
United States
More flights under this callsign
Pilot: David B. (31254)
Aircraft: CESSNA 152 AEROBAT
(C152)
More flights by this aircraft type
Origin: KBXK Buckeye Mun
United States
Destination: KCHD Chandler Mun
United States
More flights between these airports :: More routes between these airports
Route: 10AZ VPPIR VPGLX P19
File this flight plan on PilotEdge
Remarks:
Altitude:
(Current/Filed)
3,500ft
Speed:
(Current/Filed)
90kts
Departed: 02-Oct-20 02:37 PM
Arrived: 02-Oct-20 03:13 PM
Distance/Time
Traveled:
45nm/0:36
Distance/Time
To Go:
Arrived

Flight Plot

Page will automatically refresh every two minutes.

Flight plan parsing failed; only flown route is shown


Map Options




Map Legend


Flown Route
Filed Route
Departure Airport
Arrival Airport
Navaid (VOR, NDB)
Fix

Horizontal Profiles

Position Reports

Time Latitude Longitude Heading Altitude Ground
Speed
02-Oct-20 14:26 33.421308 -112.683769 90 1014ft 0kts
02-Oct-20 14:27 33.421308 -112.683769 90 1014ft 0kts
02-Oct-20 14:28 33.421308 -112.683769 90 1014ft 0kts
02-Oct-20 14:29 33.421308 -112.683769 90 1014ft 0kts
02-Oct-20 14:30 33.421308 -112.683769 90 1014ft 0kts
02-Oct-20 14:31 33.421164 -112.684995 1 1013ft 9kts
02-Oct-20 14:32 33.424637 -112.684835 1 1022ft 18kts
02-Oct-20 14:33 33.429545 -112.684309 336 1034ft 6kts
02-Oct-20 14:34 33.429563 -112.684323 318 1034ft 0kts
02-Oct-20 14:35 33.429840 -112.685946 176 1034ft 8kts
02-Oct-20 14:36 33.414231 -112.686924 180 1316ft 84kts
02-Oct-20 14:37 33.394994 -112.675102 117 1922ft 83kts
02-Oct-20 14:38 33.384249 -112.651273 114 2529ft 80kts
02-Oct-20 14:40 33.373019 -112.627340 128 2991ft 82kts
02-Oct-20 14:41 33.367836 -112.601369 81 3325ft 85kts
02-Oct-20 14:42 33.371185 -112.573361 87 3589ft 91kts
02-Oct-20 14:43 33.368356 -112.543704 98 3753ft 88kts
02-Oct-20 14:44 33.369752 -112.512077 81 3637ft 107kts
02-Oct-20 14:45 33.368154 -112.476712 97 3336ft 103kts
02-Oct-20 14:46 33.368734 -112.445362 85 3286ft 90kts
02-Oct-20 14:47 33.371483 -112.415223 82 3342ft 91kts
02-Oct-20 14:48 33.371801 -112.384796 89 3527ft 91kts
02-Oct-20 14:49 33.372808 -112.353142 91 3584ft 97kts
02-Oct-20 14:50 33.362468 -112.324569 126 3604ft 100kts
02-Oct-20 14:51 33.347358 -112.297593 136 3611ft 98kts
02-Oct-20 14:52 33.328252 -112.273771 136 3591ft 99kts
02-Oct-20 14:53 33.308526 -112.250543 130 3503ft 99kts
02-Oct-20 14:53 33.292789 -112.230703 136 3447ft 98kts
02-Oct-20 14:55 33.275571 -112.201212 84 3383ft 94kts
02-Oct-20 14:56 33.278073 -112.169762 85 3364ft 95kts
02-Oct-20 14:56 33.279447 -112.143645 79 3342ft 94kts
02-Oct-20 14:58 33.285157 -112.108343 87 3272ft 93kts
02-Oct-20 14:59 33.285554 -112.078654 84 3296ft 88kts
02-Oct-20 14:59 33.288011 -112.054407 82 3294ft 88kts
02-Oct-20 15:00 33.285834 -112.025720 104 3156ft 80kts
02-Oct-20 15:01 33.285729 -111.998231 81 2775ft 83kts
02-Oct-20 15:02 33.287683 -111.971318 86 2503ft 81kts
02-Oct-20 15:03 33.291699 -111.945236 70 2243ft 79kts
02-Oct-20 15:04 33.295943 -111.919164 72 1989ft 79kts
02-Oct-20 15:05 33.291027 -111.894682 113 1908ft 78kts
02-Oct-20 15:06 33.282723 -111.870351 109 2034ft 82kts
02-Oct-20 15:07 33.273877 -111.844483 111 2012ft 91kts
02-Oct-20 15:08 33.278770 -111.818905 52 1952ft 87kts
02-Oct-20 15:09 33.291315 -111.799898 49 1828ft 62kts
02-Oct-20 15:10 33.280938 -111.794226 247 1620ft 76kts
02-Oct-20 15:11 33.269380 -111.812590 224 1235ft 50kts
02-Oct-20 15:12 33.268911 -111.814884 38 1232ft 10kts
02-Oct-20 15:13 33.269121 -111.814755 10 1232ft 0kts
02-Oct-20 15:14 33.269121 -111.814755 10 1232ft 0kts
02-Oct-20 15:15 33.269121 -111.814755 10 1232ft 0kts
02-Oct-20 15:16 33.269121 -111.814755 10 1232ft 0kts
02-Oct-20 15:17 33.269121 -111.814755 10 1232ft 0kts
02-Oct-20 15:18 33.269121 -111.814755 10 1232ft 0kts
02-Oct-20 15:19 33.269121 -111.814755 10 1232ft 0kts
02-Oct-20 15:20 33.269121 -111.814755 10 1232ft 0kts
02-Oct-20 15:21 33.269121 -111.814755 10 1232ft 0kts
02-Oct-20 15:22 33.269121 -111.814755 10 1232ft 0kts
02-Oct-20 15:23 33.269121 -111.814755 10 1232ft 0kts
02-Oct-20 15:24 33.269121 -111.814755 10 1232ft 0kts
02-Oct-20 15:25 33.269121 -111.814755 10 1232ft 0kts
02-Oct-20 15:26 33.269121 -111.814755 10 1232ft 0kts

Navigation Log

Ident Type
Flight plan parsing failed, navigation log unavailable